Time;durP1;ratioP1;P1;durP2;ratioP2;P2;SDS_P1;SDS_P2;PMS_P1;PMS_P2;Temp;Humidity;BMP_temperature;BMP_pressure;BME280_temperature;BME280_humidity;BME280_pressure;Samples;Min_cycle;Max_cycle;Signal;HPM_P1;HPM_P2
2024/01/04 00:01:42;;;;;;;5.63;0.50;;;6.10;99.90;;;;;;5058630;28;20468;-84
2024/01/04 00:04:08;;;;;;;0.93;0.40;;;6.50;99.90;;;;;;5058787;28;20101;-84
2024/01/04 00:06:33;;;;;;;5.90;0.50;;;6.10;99.90;;;;;;5075080;28;20044;-85
2024/01/04 00:08:59;;;;;;;4.93;0.30;;;6.10;99.90;;;;;;5075648;28;20056;-84
2024/01/04 00:11:25;;;;;;;2.83;0.30;;;7.10;99.90;;;;;;5082419;28;20090;-84
2024/01/04 00:13:51;;;;;;;0.93;0.30;;;6.80;99.90;;;;;;5092956;28;20044;-84
2024/01/04 00:16:17;;;;;;;2.95;0.30;;;7.00;99.90;;;;;;5070285;28;20057;-84
2024/01/04 00:18:43;;;;;;;1.38;0.35;;;7.00;99.90;;;;;;5071666;28;20098;-84
2024/01/04 00:21:12;;;;;;;1.50;0.45;;;6.40;99.90;;;;;;5071660;28;20044;-84
2024/01/04 00:23:38;;;;;;;6.03;0.40;;;6.00;99.90;;;;;;5072766;28;20430;-85
2024/01/04 00:26:04;;;;;;;1.33;0.43;;;5.90;99.90;;;;;;5073527;28;20135;-85
2024/01/04 00:28:29;;;;;;;4.10;0.32;;;6.00;99.90;;;;;;5044326;28;20174;-84
2024/01/04 00:30:55;;;;;;;2.55;0.35;;;6.60;99.90;;;;;;5047649;28;20036;-84
2024/01/04 00:33:21;;;;;;;2.42;0.47;;;6.40;99.90;;;;;;5056826;28;20085;-85
2024/01/04 00:35:47;;;;;;;2.85;0.30;;;6.30;99.90;;;;;;5058163;28;20161;-84
2024/01/04 00:38:12;;;;;;;2.00;0.40;;;6.90;99.90;;;;;;5057458;28;20063;-84
2024/01/04 00:40:39;;;;;;;3.08;0.70;;;6.40;99.90;;;;;;5074920;28;20374;-84
2024/01/04 00:43:05;;;;;;;4.65;0.50;;;5.90;99.90;;;;;;5074394;28;20070;-84
2024/01/04 00:45:31;;;;;;;3.30;0.40;;;6.10;99.90;;;;;;5074784;28;20184;-84
2024/01/04 00:47:56;;;;;;;2.00;0.30;;;6.50;99.90;;;;;;5092892;28;20051;-84
2024/01/04 00:50:22;;;;;;;3.17;0.47;;;6.60;99.90;;;;;;5074609;28;20044;-84
2024/01/04 00:52:48;;;;;;;2.88;0.30;;;6.80;99.90;;;;;;5071121;28;20052;-84
2024/01/04 00:55:13;;;;;;;4.38;0.40;;;6.20;99.90;;;;;;5071227;28;20036;-84
2024/01/04 00:57:39;;;;;;;3.03;0.40;;;5.80;99.90;;;;;;5073587;28;20044;-84
2024/01/04 01:00:05;;;;;;;2.83;0.35;;;6.30;99.90;;;;;;5092810;28;20047;-84
2024/01/04 01:02:31;;;;;;;1.63;0.30;;;5.90;99.90;;;;;;5058012;28;20369;-84
2024/01/04 01:04:56;;;;;;;0.43;0.30;;;6.40;99.90;;;;;;5092189;28;20074;-84
2024/01/04 01:07:22;;;;;;;2.45;0.60;;;6.40;99.90;;;;;;5057580;28;20485;-84
2024/01/04 01:09:48;;;;;;;4.43;0.50;;;6.30;99.90;;;;;;5076568;28;20043;-84
2024/01/04 01:12:14;;;;;;;7.45;0.95;;;6.40;99.90;;;;;;5084285;28;20060;-84
2024/01/04 01:14:40;;;;;;;2.20;0.32;;;6.60;99.90;;;;;;5077683;28;20127;-85
2024/01/04 01:17:06;;;;;;;4.95;0.40;;;6.30;99.90;;;;;;5095280;28;20044;-84
2024/01/04 01:19:32;;;;;;;2.78;0.38;;;6.30;99.90;;;;;;5094961;28;20489;-84
2024/01/04 01:21:58;;;;;;;4.82;0.50;;;6.30;99.90;;;;;;5095085;28;20439;-84
2024/01/04 01:24:23;;;;;;;6.90;0.40;;;6.10;99.90;;;;;;5096071;28;20045;-85
2024/01/04 01:26:50;;;;;;;0.90;0.22;;;6.50;99.90;;;;;;5108961;28;20059;-84
2024/01/04 01:29:16;;;;;;;2.88;0.40;;;5.80;99.90;;;;;;5116299;28;20039;-84
2024/01/04 01:31:42;;;;;;;1.02;0.43;;;6.10;99.90;;;;;;5087083;28;20050;-84
2024/01/04 01:34:08;;;;;;;1.67;0.30;;;5.70;99.90;;;;;;5077539;28;20441;-84
2024/01/04 01:36:34;;;;;;;4.90;0.40;;;5.80;99.90;;;;;;5095805;28;20058;-85
2024/01/04 01:38:59;;;;;;;1.63;0.30;;;4.90;99.90;;;;;;5096061;28;20036;-85
2024/01/04 01:41:25;;;;;;;1.55;0.40;;;4.70;99.90;;;;;;5077887;28;20051;-84
2024/01/04 01:43:51;;;;;;;3.08;0.52;;;6.00;99.90;;;;;;5077408;28;20083;-84
2024/01/04 01:46:17;;;;;;;0.55;0.30;;;5.80;99.90;;;;;;5095372;28;20046;-84
2024/01/04 01:48:43;;;;;;;3.78;0.50;;;5.30;99.90;;;;;;5077524;28;20055;-84
2024/01/04 01:51:10;;;;;;;1.25;0.32;;;5.40;99.90;;;;;;5101942;28;20047;-84
2024/01/04 01:53:36;;;;;;;1.60;0.40;;;5.10;99.90;;;;;;5115941;28;20072;-84
2024/01/04 01:56:03;;;;;;;2.03;0.35;;;5.10;99.90;;;;;;5115849;28;20401;-85
2024/01/04 01:58:29;;;;;;;2.45;0.40;;;5.00;99.90;;;;;;5097448;28;20078;-84
2024/01/04 02:00:55;;;;;;;5.80;0.60;;;5.00;99.90;;;;;;5076794;28;20366;-84
2024/01/04 02:03:22;;;;;;;2.10;0.30;;;5.80;99.90;;;;;;5094031;28;20131;-84
2024/01/04 02:05:47;;;;;;;4.90;0.30;;;5.80;99.90;;;;;;5094203;28;20395;-84
2024/01/04 02:08:13;;;;;;;2.72;0.30;;;5.70;99.90;;;;;;5077065;28;20040;-84
2024/01/04 02:10:39;;;;;;;3.67;0.60;;;5.90;99.90;;;;;;5094895;28;20048;-84
2024/01/04 02:13:05;;;;;;;2.95;0.30;;;5.70;99.90;;;;;;5076936;28;20051;-85
2024/01/04 02:15:31;;;;;;;2.08;0.30;;;5.70;99.90;;;;;;5076684;28;20047;-84
2024/01/04 02:17:57;;;;;;;1.63;0.30;;;5.60;99.90;;;;;;5075949;28;20044;-84
2024/01/04 02:20:23;;;;;;;2.90;0.28;;;5.90;99.90;;;;;;5095855;28;20078;-84
2024/01/04 02:22:51;;;;;;;0.98;0.20;;;4.30;99.90;;;;;;5060068;28;20075;-85
2024/01/04 02:25:17;;;;;;;7.05;0.40;;;5.80;99.90;;;;;;5060019;28;20075;-85
2024/01/04 02:27:43;;;;;;;3.55;0.40;;;5.80;99.90;;;;;;5094753;28;20072;-85
2024/01/04 02:30:11;;;;;;;1.17;0.40;;;4.80;99.90;;;;;;5100188;28;20043;-83
2024/01/04 02:32:37;;;;;;;1.48;0.40;;;4.70;99.90;;;;;;5059717;28;20036;-84
2024/01/04 02:35:03;;;;;;;2.60;0.30;;;5.70;99.90;;;;;;5059820;28;20048;-83
2024/01/04 02:37:29;;;;;;;2.40;0.25;;;4.80;99.90;;;;;;5076721;28;20093;-85
2024/01/04 02:39:55;;;;;;;3.30;0.32;;;5.40;99.90;;;;;;5076456;28;20039;-85
2024/01/04 02:42:20;;;;;;;2.47;0.30;;;5.70;99.90;;;;;;5103743;28;20097;-84
2024/01/04 02:44:46;;;;;;;1.35;0.30;;;5.20;99.90;;;;;;5115194;28;20079;-84
2024/01/04 02:47:11;;;;;;;0.80;0.30;;;5.70;99.90;;;;;;5084617;28;20038;-84
2024/01/04 02:49:38;;;;;;;1.90;0.75;;;5.20;99.90;;;;;;5059894;28;20047;-84
2024/01/04 02:52:05;;;;;;;2.83;0.30;;;4.00;99.90;;;;;;5094414;28;20089;-85
2024/01/04 02:54:30;;;;;;;3.53;0.30;;;4.70;99.90;;;;;;5076238;28;20489;-84
2024/01/04 02:56:56;;;;;;;4.45;0.30;;;4.90;99.90;;;;;;5076423;28;20073;-84
2024/01/04 02:59:21;;;;;;;3.42;0.38;;;5.40;99.90;;;;;;5076104;28;20495;-84
2024/01/04 03:01:48;;;;;;;2.03;0.22;;;5.20;99.90;;;;;;5093970;28;20608;-84
2024/01/04 03:04:15;;;;;;;2.88;0.30;;;5.10;99.90;;;;;;5059508;28;20047;-84
2024/01/04 03:06:41;;;;;;;2.60;0.22;;;5.10;99.90;;;;;;5058959;28;20048;-84
2024/01/04 03:09:07;;;;;;;3.45;0.30;;;5.40;99.90;;;;;;5094093;28;20386;-84
2024/01/04 03:11:33;;;;;;;1.25;0.38;;;5.70;99.90;;;;;;5097575;28;20056;-84
2024/01/04 03:13:58;;;;;;;1.67;0.50;;;4.80;99.90;;;;;;5075738;28;20138;-84
2024/01/04 03:16:24;;;;;;;2.17;0.30;;;4.80;99.90;;;;;;5075347;28;20056;-83
2024/01/04 03:18:50;;;;;;;0.40;0.20;;;4.70;99.90;;;;;;5076058;28;20382;-84
2024/01/04 03:21:16;;;;;;;3.40;0.40;;;5.80;99.90;;;;;;5075762;28;20139;-84
2024/01/04 03:23:42;;;;;;;1.60;0.30;;;5.20;99.90;;;;;;5075711;28;20078;-84
2024/01/04 03:26:08;;;;;;;1.80;0.20;;;5.10;99.90;;;;;;5075617;28;20067;-84
2024/01/04 03:28:34;;;;;;;1.15;0.20;;;5.40;99.90;;;;;;5093451;28;20501;-84
2024/01/04 03:30:59;;;;;;;0.55;0.20;;;5.20;99.90;;;;;;5083182;28;20126;-84
2024/01/04 03:33:25;;;;;;;1.10;0.28;;;5.30;99.90;;;;;;5074776;28;20042;-84
2024/01/04 03:35:51;;;;;;;2.03;0.30;;;5.00;99.90;;;;;;5075194;28;20496;-84
2024/01/04 03:38:17;;;;;;;0.63;0.20;;;5.20;99.90;;;;;;5058590;28;20036;-84
2024/01/04 03:40:42;;;;;;;0.85;0.20;;;4.60;99.90;;;;;;5075544;28;20052;-84
2024/01/04 03:43:08;;;;;;;1.73;0.20;;;4.60;99.90;;;;;;5093419;28;20039;-84
2024/01/04 03:45:34;;;;;;;1.35;0.30;;;4.90;99.90;;;;;;5075644;28;20051;-84
2024/01/04 03:48:00;;;;;;;1.88;0.25;;;4.50;99.90;;;;;;5093662;28;20054;-84
2024/01/04 03:50:26;;;;;;;1.58;0.30;;;4.20;99.90;;;;;;5093265;28;20044;-84
2024/01/04 03:52:52;;;;;;;5.28;0.40;;;5.20;99.90;;;;;;5075289;28;20403;-84
2024/01/04 03:55:18;;;;;;;1.23;0.30;;;5.50;99.90;;;;;;5059457;28;20036;-84
2024/01/04 03:57:44;;;;;;;1.77;0.30;;;4.70;99.90;;;;;;5075099;28;20117;-84
2024/01/04 04:00:10;;;;;;;4.03;0.43;;;4.50;99.90;;;;;;5057773;28;20079;-85
2024/01/04 04:02:36;;;;;;;2.50;0.40;;;4.60;99.90;;;;;;5075401;28;20043;-84
2024/01/04 04:05:02;;;;;;;2.67;0.50;;;4.30;99.90;;;;;;5093407;28;20553;-84
2024/01/04 04:07:28;;;;;;;3.45;0.57;;;4.60;99.90;;;;;;5092969;28;20503;-84
2024/01/04 04:09:54;;;;;;;2.55;0.30;;;5.30;99.90;;;;;;5082609;28;20036;-84
2024/01/04 04:12:20;;;;;;;5.20;0.40;;;5.60;99.90;;;;;;5110177;28;20094;-83
2024/01/04 04:14:46;;;;;;;3.15;0.47;;;5.70;99.90;;;;;;5111357;28;20064;-84
2024/01/04 04:17:12;;;;;;;2.03;0.30;;;5.10;99.90;;;;;;5113609;28;20092;-84
2024/01/04 04:19:38;;;;;;;5.30;0.98;;;5.20;99.90;;;;;;5095464;28;20388;-84
2024/01/04 04:22:03;;;;;;;1.55;0.40;;;5.40;99.90;;;;;;5095384;28;20042;-84
2024/01/04 04:24:30;;;;;;;2.85;0.40;;;5.60;99.90;;;;;;5095337;28;20576;-84
2024/01/04 04:26:56;;;;;;;2.47;0.40;;;5.60;99.90;;;;;;5094090;28;20130;-84
2024/01/04 04:29:21;;;;;;;1.95;0.40;;;4.60;99.90;;;;;;5097547;28;20127;-84
2024/01/04 04:31:50;;;;;;;1.80;0.30;;;5.00;99.90;;;;;;5111932;28;20040;-84
2024/01/04 04:34:15;;;;;;;2.58;0.52;;;5.40;99.90;;;;;;5111988;28;20055;-84
2024/01/04 04:36:41;;;;;;;5.07;0.40;;;5.50;99.90;;;;;;5113279;28;20191;-83
2024/01/04 04:39:08;;;;;;;2.97;0.40;;;5.00;99.90;;;;;;5113368;28;20040;-84
2024/01/04 04:41:34;;;;;;;5.63;0.40;;;5.30;99.90;;;;;;5108857;28;20050;-84
2024/01/04 04:44:00;;;;;;;0.77;0.38;;;4.90;99.90;;;;;;5090681;28;20043;-83
2024/01/04 04:46:26;;;;;;;1.75;0.45;;;5.60;99.90;;;;;;5097915;28;20039;-84
2024/01/04 04:48:56;;;;;;;6.53;0.80;;;4.50;99.90;;;;;;5095391;28;20040;-84
2024/01/04 04:51:25;;;;;;;3.72;0.40;;;5.50;99.90;;;;;;5078599;28;20420;-84
2024/01/04 04:53:54;;;;;;;1.85;0.35;;;5.30;99.90;;;;;;5095375;28;20118;-84
2024/01/04 04:56:19;;;;;;;3.55;0.30;;;5.50;99.90;;;;;;5095418;28;20122;-84
2024/01/04 04:58:45;;;;;;;2.05;0.50;;;4.50;99.90;;;;;;5095307;28;20131;-84
2024/01/04 05:01:12;;;;;;;1.90;0.25;;;4.70;99.90;;;;;;5098514;28;20055;-84
2024/01/04 05:03:38;;;;;;;0.88;0.20;;;5.30;99.90;;;;;;5116846;28;20036;-83
2024/01/04 05:06:06;;;;;;;3.13;0.40;;;4.80;99.90;;;;;;5116903;28;20048;-84
2024/01/04 05:08:32;;;;;;;3.88;0.45;;;5.20;99.90;;;;;;5115725;28;20035;-83
2024/01/04 05:10:58;;;;;;;0.93;0.30;;;4.80;99.90;;;;;;5124170;27;20130;-84
2024/01/04 05:13:23;;;;;;;1.00;0.30;;;5.00;99.90;;;;;;5137296;27;20043;-85
2024/01/04 05:15:49;;;;;;;2.25;0.38;;;4.30;99.90;;;;;;5107261;28;20039;-84
2024/01/04 05:18:15;;;;;;;3.65;1.30;;;4.30;99.90;;;;;;5098447;28;20037;-84
2024/01/04 05:20:40;;;;;;;4.32;0.43;;;5.00;99.90;;;;;;5116849;28;20038;-84
2024/01/04 05:23:07;;;;;;;0.73;0.30;;;4.60;99.90;;;;;;5121303;27;20051;-84
2024/01/04 05:25:33;;;;;;;0.90;0.40;;;4.10;99.90;;;;;;5101736;27;20074;-83
2024/01/04 05:27:59;;;;;;;1.77;0.30;;;4.40;99.90;;;;;;5118489;27;20480;-83
2024/01/04 05:30:25;;;;;;;2.25;0.30;;;4.10;99.90;;;;;;5108359;28;20088;-83
2024/01/04 05:32:50;;;;;;;3.72;0.30;;;4.40;99.90;;;;;;5098075;28;20101;-84
2024/01/04 05:35:16;;;;;;;3.25;0.40;;;4.10;99.90;;;;;;5081103;28;20449;-85
2024/01/04 05:37:42;;;;;;;2.25;0.40;;;4.60;99.90;;;;;;5098023;28;20043;-83
2024/01/04 05:40:09;;;;;;;1.70;0.77;;;4.10;99.90;;;;;;5097465;28;20455;-84
2024/01/04 05:42:35;;;;;;;0.98;0.30;;;4.00;99.90;;;;;;5080640;28;20043;-84
2024/01/04 05:45:00;;;;;;;3.60;0.35;;;4.00;99.90;;;;;;5097471;28;20039;-85
2024/01/04 05:47:26;;;;;;;1.77;0.30;;;4.90;99.90;;;;;;5098014;28;20050;-84
2024/01/04 05:49:52;;;;;;;4.32;0.47;;;4.00;99.90;;;;;;5097480;28;20502;-84
2024/01/04 05:52:17;;;;;;;1.60;0.30;;;4.00;99.90;;;;;;5097039;28;20044;-85
2024/01/04 05:54:43;;;;;;;1.95;0.35;;;4.80;99.90;;;;;;5115960;28;20036;-85
2024/01/04 05:57:09;;;;;;;1.65;1.17;;;4.20;99.90;;;;;;5096695;28;20039;-84
2024/01/04 05:59:35;;;;;;;4.65;0.40;;;4.10;99.90;;;;;;5114911;28;20126;-84
2024/01/04 06:02:00;;;;;;;0.77;0.20;;;4.70;99.90;;;;;;5106223;27;20061;-84
2024/01/04 06:04:26;;;;;;;2.42;0.30;;;3.80;99.90;;;;;;5117321;27;20035;-84
2024/01/04 06:06:53;;;;;;;4.10;0.40;;;4.50;99.90;;;;;;5136066;27;20050;-84
2024/01/04 06:09:20;;;;;;;1.40;0.30;;;3.90;99.90;;;;;;5117725;27;20162;-84
2024/01/04 06:11:47;;;;;;;2.35;0.75;;;4.40;99.90;;;;;;5117507;27;20142;-85
2024/01/04 06:14:12;;;;;;;2.05;0.30;;;4.10;99.90;;;;;;5111878;28;20140;-84
2024/01/04 06:16:38;;;;;;;0.50;0.30;;;3.80;99.90;;;;;;5080242;28;20057;-85
2024/01/04 06:19:04;;;;;;;2.25;0.50;;;3.80;99.90;;;;;;5080541;28;20040;-85
2024/01/04 06:21:30;;;;;;;4.07;1.02;;;4.10;99.90;;;;;;5097133;28;20056;-84
2024/01/04 06:23:56;;;;;;;1.77;0.45;;;3.80;99.90;;;;;;5113783;28;20050;-84
2024/01/04 06:26:23;;;;;;;5.95;0.50;;;5.00;99.90;;;;;;5093102;28;20130;-84
2024/01/04 06:28:49;;;;;;;1.10;0.40;;;4.10;99.90;;;;;;5093436;28;20512;-85
2024/01/04 06:31:15;;;;;;;2.65;0.40;;;3.70;99.90;;;;;;5096324;28;20053;-85
2024/01/04 06:33:40;;;;;;;3.47;0.40;;;3.20;99.90;;;;;;5115227;28;20173;-84
2024/01/04 06:36:07;;;;;;;0.98;0.32;;;3.90;99.90;;;;;;5096655;28;20152;-84
2024/01/04 06:38:35;;;;;;;4.10;0.50;;;3.70;99.90;;;;;;5096698;28;20051;-85
2024/01/04 06:41:03;;;;;;;2.72;0.60;;;4.30;99.90;;;;;;5114959;28;20394;-84
2024/01/04 06:43:30;;;;;;;3.53;0.40;;;3.90;99.90;;;;;;5096662;28;20043;-84
2024/01/04 06:45:57;;;;;;;6.53;0.50;;;3.70;99.90;;;;;;5114281;28;20135;-84
2024/01/04 06:48:23;;;;;;;1.15;0.30;;;4.70;99.90;;;;;;5096614;28;20122;-84
2024/01/04 06:50:49;;;;;;;3.97;0.50;;;4.10;99.90;;;;;;5114929;28;20098;-84
2024/01/04 06:53:14;;;;;;;2.97;0.35;;;3.90;99.90;;;;;;5094222;28;20051;-83
2024/01/04 06:55:46;;;;;;;1.90;0.30;;;3.80;99.90;;;;;;5094622;28;20070;-84
2024/01/04 06:58:11;;;;;;;3.78;0.35;;;3.60;99.90;;;;;;5094343;28;20055;-84
2024/01/04 07:00:37;;;;;;;0.75;0.35;;;4.30;99.90;;;;;;5106556;27;20031;-84
2024/01/04 07:03:03;;;;;;;2.90;0.35;;;3.50;99.90;;;;;;5114821;28;20062;-85
2024/01/04 07:05:30;;;;;;;2.25;0.30;;;3.50;99.90;;;;;;5096537;28;20035;-84
2024/01/04 07:07:56;;;;;;;2.80;0.45;;;3.50;99.90;;;;;;5114074;28;20096;-84
2024/01/04 07:10:21;;;;;;;3.13;0.60;;;3.60;99.90;;;;;;5114238;28;20043;-84
2024/01/04 07:12:47;;;;;;;2.10;0.40;;;3.80;99.90;;;;;;5096062;28;20054;-85
2024/01/04 07:15:14;;;;;;;0.85;0.20;;;3.60;99.90;;;;;;5111481;28;20157;-84
2024/01/04 07:17:40;;;;;;;3.70;0.40;;;4.00;99.90;;;;;;5093812;28;20067;-84
2024/01/04 07:20:06;;;;;;;5.03;0.43;;;4.00;99.90;;;;;;5075918;28;20128;-83
2024/01/04 07:22:32;;;;;;;2.55;0.40;;;3.50;99.90;;;;;;5075962;28;20136;-84
2024/01/04 07:24:58;;;;;;;3.97;0.43;;;3.90;99.90;;;;;;5075559;28;20420;-84
2024/01/04 07:27:24;;;;;;;3.75;0.40;;;4.20;99.90;;;;;;5093854;28;20033;-83
2024/01/04 07:29:50;;;;;;;2.38;0.40;;;4.50;99.90;;;;;;5084484;28;20400;-85
2024/01/04 07:32:18;;;;;;;1.27;0.40;;;3.50;99.90;;;;;;5075498;28;20044;-85
2024/01/04 07:34:45;;;;;;;3.47;0.30;;;3.90;99.90;;;;;;5092469;28;20044;-86
2024/01/04 07:37:14;;;;;;;4.35;0.65;;;4.20;99.90;;;;;;5073255;28;20059;-84
2024/01/04 07:39:41;;;;;;;5.00;0.40;;;4.20;99.90;;;;;;5072896;28;20050;-85
2024/01/04 07:42:07;;;;;;;2.53;0.50;;;4.00;99.90;;;;;;5093707;28;20028;-85
2024/01/04 07:44:33;;;;;;;1.48;0.30;;;3.40;99.90;;;;;;5074481;28;20105;-85
2024/01/04 07:46:58;;;;;;;2.25;0.32;;;3.80;99.90;;;;;;5058210;28;20040;-84
2024/01/04 07:49:24;;;;;;;3.63;0.38;;;3.30;99.90;;;;;;5094201;28;20385;-84
2024/01/04 07:51:52;;;;;;;1.88;0.50;;;3.60;99.90;;;;;;5075096;28;20047;-84
2024/01/04 07:54:18;;;;;;;1.50;0.35;;;3.80;99.90;;;;;;5093369;28;20044;-84
2024/01/04 07:56:44;;;;;;;3.70;0.38;;;3.30;99.90;;;;;;5075288;28;20052;-85
2024/01/04 07:59:09;;;;;;;2.92;0.30;;;3.90;99.90;;;;;;5075289;28;20055;-84
2024/01/04 08:01:35;;;;;;;2.35;0.40;;;3.50;99.90;;;;;;5075079;28;20044;-84
2024/01/04 08:04:01;;;;;;;1.95;0.30;;;4.00;99.90;;;;;;5093380;28;20385;-83
2024/01/04 08:06:27;;;;;;;0.85;0.30;;;3.10;99.90;;;;;;5058637;28;20044;-83
2024/01/04 08:08:52;;;;;;;2.20;0.50;;;3.20;99.90;;;;;;5100104;28;20115;-84
2024/01/04 08:11:19;;;;;;;3.22;0.50;;;3.70;99.90;;;;;;5113322;28;20139;-83
2024/01/04 08:13:45;;;;;;;1.63;0.20;;;3.90;99.90;;;;;;5113672;28;20044;-84
2024/01/04 08:16:11;;;;;;;10.63;0.40;;;3.20;99.90;;;;;;5095548;28;20503;-84
2024/01/04 08:18:37;;;;;;;0.70;0.30;;;3.80;99.90;;;;;;5096791;28;20078;-83
2024/01/04 08:21:03;;;;;;;2.60;0.40;;;3.40;99.90;;;;;;5085107;28;20044;-83
2024/01/04 08:23:30;;;;;;;3.97;0.90;;;3.20;99.90;;;;;;5102311;28;20569;-83
2024/01/04 08:25:56;;;;;;;4.95;0.63;;;3.70;99.90;;;;;;5120352;28;20043;-83
2024/01/04 08:28:22;;;;;;;2.00;0.60;;;3.30;99.90;;;;;;5101862;28;20487;-84
2024/01/04 08:30:48;;;;;;;1.85;0.40;;;4.00;99.90;;;;;;5102137;28;20436;-83
2024/01/04 08:33:13;;;;;;;2.17;0.57;;;2.60;99.90;;;;;;5120153;28;20043;-83
2024/01/04 08:35:40;;;;;;;1.08;0.20;;;3.80;99.90;;;;;;5101859;28;20043;-84
2024/01/04 08:38:06;;;;;;;4.20;0.40;;;4.30;99.90;;;;;;5101947;28;20054;-83
2024/01/04 08:40:36;;;;;;;2.78;0.30;;;4.30;99.90;;;;;;5084952;28;20084;-83
2024/01/04 08:43:03;;;;;;;2.40;0.40;;;3.60;99.90;;;;;;5118198;28;20475;-83
2024/01/04 08:45:29;;;;;;;0.80;0.40;;;3.30;99.90;;;;;;5102084;28;20403;-84
2024/01/04 08:47:54;;;;;;;2.70;0.40;;;4.00;99.90;;;;;;5084954;28;20036;-83
2024/01/04 08:50:21;;;;;;;1.10;0.30;;;4.00;99.90;;;;;;5101814;28;20089;-83
2024/01/04 08:52:47;;;;;;;2.55;0.55;;;3.90;99.90;;;;;;5084949;28;20075;-83
2024/01/04 08:55:13;;;;;;;1.55;0.25;;;3.20;99.90;;;;;;5102028;28;20144;-83
2024/01/04 08:57:39;;;;;;;2.83;0.38;;;3.30;99.90;;;;;;5119851;28;20487;-84
2024/01/04 09:00:06;;;;;;;5.22;0.50;;;4.00;99.90;;;;;;5102074;28;20039;-84
2024/01/04 09:02:31;;;;;;;2.85;0.40;;;3.40;99.90;;;;;;5101252;28;20130;-83
2024/01/04 09:04:57;;;;;;;3.60;0.50;;;3.40;99.90;;;;;;5101957;28;20458;-83
2024/01/04 09:07:23;;;;;;;1.52;0.40;;;4.00;99.90;;;;;;5119984;28;20123;-84
2024/01/04 09:09:48;;;;;;;5.40;0.50;;;3.40;99.90;;;;;;5084657;28;20048;-83
2024/01/04 09:12:15;;;;;;;1.55;0.30;;;3.40;99.90;;;;;;5101300;28;20134;-83
2024/01/04 09:14:41;;;;;;;3.13;0.40;;;4.10;99.90;;;;;;5089579;28;20048;-84
2024/01/04 09:17:06;;;;;;;1.33;0.30;;;4.00;99.90;;;;;;5081106;28;20046;-83
2024/01/04 09:19:32;;;;;;;4.60;0.80;;;3.60;99.90;;;;;;5081224;28;20098;-84
2024/01/04 09:21:58;;;;;;;1.95;0.80;;;4.10;99.90;;;;;;5099479;28;20422;-83
2024/01/04 09:24:24;;;;;;;4.07;0.60;;;3.70;99.90;;;;;;5099319;28;20528;-84
2024/01/04 09:26:50;;;;;;;1.75;0.30;;;4.50;99.90;;;;;;5099367;28;20097;-83
2024/01/04 09:29:17;;;;;;;1.90;0.40;;;4.40;99.90;;;;;;5099204;28;20134;-83
2024/01/04 09:31:43;;;;;;;4.18;0.80;;;3.90;99.90;;;;;;5096370;28;20522;-83
2024/01/04 09:34:09;;;;;;;2.95;0.57;;;4.20;99.90;;;;;;5095944;28;20036;-84
2024/01/04 09:36:35;;;;;;;2.28;0.50;;;4.10;99.90;;;;;;5060908;28;20048;-84
2024/01/04 09:39:04;;;;;;;3.50;0.70;;;3.90;99.90;;;;;;5078828;28;20040;-83
2024/01/04 09:41:31;;;;;;;3.80;1.20;;;4.00;99.90;;;;;;5078138;28;20392;-84
2024/01/04 09:44:03;;;;;;;2.28;0.35;;;5.00;99.90;;;;;;5096964;28;20048;-83
2024/01/04 09:46:33;;;;;;;1.75;0.40;;;4.10;99.90;;;;;;5077455;28;20051;-84
2024/01/04 09:48:59;;;;;;;1.90;0.40;;;4.10;99.90;;;;;;5077582;28;20044;-84
2024/01/04 09:51:26;;;;;;;2.50;0.38;;;4.60;99.90;;;;;;5077717;28;20047;-83
2024/01/04 09:53:55;;;;;;;5.78;0.40;;;3.60;99.90;;;;;;5077836;28;20079;-84
2024/01/04 09:56:26;;;;;;;2.78;0.40;;;5.20;99.90;;;;;;5077538;28;20122;-84
2024/01/04 09:58:53;;;;;;;1.67;0.50;;;4.60;99.90;;;;;;5077317;28;20040;-84
2024/01/04 10:01:31;;;;;;;3.55;0.40;;;4.30;99.90;;;;;;5077298;28;20036;-84
2024/01/04 10:04:07;;;;;;;1.15;0.40;;;4.30;99.90;;;;;;5060659;28;20054;-84
2024/01/04 10:06:35;;;;;;;3.92;0.40;;;4.30;99.90;;;;;;5077253;28;20427;-84
2024/01/04 10:09:38;;;;;;;1.02;0.45;;;4.30;99.90;;;;;;5077218;28;20040;-84
2024/01/04 10:12:07;;;;;;;5.38;0.60;;;4.30;99.90;;;;;;5056944;28;20419;-84
2024/01/04 10:14:34;;;;;;;5.28;0.43;;;4.20;99.90;;;;;;5056956;28;20049;-84
2024/01/04 10:17:00;;;;;;;3.08;0.50;;;4.40;99.90;;;;;;5057188;28;20492;-83
2024/01/04 10:19:27;;;;;;;2.22;0.40;;;5.00;99.90;;;;;;5040330;28;20048;-83
2024/01/04 10:21:53;;;;;;;0.63;0.30;;;4.10;99.90;;;;;;5057074;28;20041;-83
2024/01/04 10:24:23;;;;;;;2.38;0.40;;;4.90;99.90;;;;;;5062630;28;20081;-84
2024/01/04 10:27:00;;;;;;;1.00;0.30;;;4.30;99.90;;;;;;5076865;28;20086;-83
2024/01/04 10:29:26;;;;;;;1.33;0.35;;;4.60;99.90;;;;;;5077080;28;20035;-84
2024/01/04 10:32:08;;;;;;;3.65;0.40;;;4.10;99.90;;;;;;5076753;28;20087;-84
2024/01/04 10:34:35;;;;;;;4.45;0.60;;;4.20;99.90;;;;;;5076879;28;20126;-84
2024/01/04 10:37:14;;;;;;;1.73;0.30;;;4.60;99.90;;;;;;5076547;28;20044;-84
2024/01/04 10:39:44;;;;;;;1.67;0.40;;;4.20;99.90;;;;;;5076865;28;20397;-84
2024/01/04 10:42:12;;;;;;;4.43;0.50;;;5.10;99.90;;;;;;5075937;28;20178;-83
2024/01/04 10:44:39;;;;;;;1.10;0.30;;;4.20;99.90;;;;;;5074863;28;20133;-84
2024/01/04 10:47:05;;;;;;;1.15;0.30;;;4.30;99.90;;;;;;5076532;28;20040;-84
2024/01/04 10:49:31;;;;;;;2.83;0.30;;;4.30;99.90;;;;;;5059853;28;20044;-84
2024/01/04 10:51:58;;;;;;;0.98;0.35;;;4.40;99.90;;;;;;5076209;28;20048;-84
2024/01/04 10:54:32;;;;;;;2.38;0.40;;;5.00;99.90;;;;;;5076249;28;20040;-84
2024/01/04 10:56:59;;;;;;;2.55;0.38;;;4.80;99.90;;;;;;5076179;28;20048;-84
2024/01/04 10:59:29;;;;;;;1.25;0.22;;;5.10;99.90;;;;;;5076399;28;20040;-84
2024/01/04 11:01:57;;;;;;;1.83;0.30;;;4.50;99.90;;;;;;5059758;28;20424;-83
2024/01/04 11:04:23;;;;;;;4.03;0.40;;;5.10;99.90;;;;;;5075419;28;20064;-83
2024/01/04 11:06:52;;;;;;;0.60;0.30;;;4.60;99.90;;;;;;5094057;28;20044;-84
2024/01/04 11:09:21;;;;;;;0.82;0.28;;;4.50;99.90;;;;;;5075991;28;20063;-84
2024/01/04 11:11:54;;;;;;;3.03;0.30;;;4.90;99.90;;;;;;5059405;28;20109;-84
2024/01/04 11:14:21;;;;;;;1.52;0.40;;;5.10;99.90;;;;;;5094251;28;20067;-83
2024/01/04 11:17:04;;;;;;;1.60;0.55;;;4.40;99.90;;;;;;5093937;28;20122;-84
2024/01/04 11:19:52;;;;;;;0.85;0.38;;;4.40;99.90;;;;;;5077870;28;20048;-84
2024/01/04 11:22:21;;;;;;;2.83;0.30;;;4.40;99.90;;;;;;5055783;28;20056;-85
2024/01/04 11:25:15;;;;;;;1.98;0.30;;;4.30;99.90;;;;;;5072194;28;20127;-84
2024/01/04 11:27:42;;;;;;;2.33;0.40;;;4.30;99.90;;;;;;4975870;28;20104;-84
2024/01/04 11:30:10;;;;;;;2.78;0.30;;;4.80;99.90;;;;;;4959980;28;20090;-84
2024/01/04 11:32:36;;;;;;;3.75;0.40;;;4.40;99.90;;;;;;4982641;28;20133;-84
2024/01/04 11:35:02;;;;;;;1.67;0.35;;;5.30;99.90;;;;;;4995288;28;20136;-83
2024/01/04 11:37:28;;;;;;;1.70;0.40;;;4.50;99.90;;;;;;4995545;28;20058;-83
2024/01/04 11:40:03;;;;;;;3.10;0.50;;;5.40;99.90;;;;;;5011559;28;20101;-84
2024/01/04 11:42:40;;;;;;;2.30;0.47;;;5.00;99.90;;;;;;4978963;28;20049;-84
2024/01/04 11:45:17;;;;;;;4.63;0.50;;;5.00;99.90;;;;;;5008913;28;20096;-84
2024/01/04 11:47:47;;;;;;;1.90;0.30;;;5.20;99.90;;;;;;4995246;28;20046;-84
2024/01/04 11:50:13;;;;;;;1.48;0.40;;;5.30;99.90;;;;;;4995000;28;20049;-85
2024/01/04 11:52:39;;;;;;;2.55;0.55;;;4.90;99.90;;;;;;4978426;28;20072;-84
2024/01/04 11:55:06;;;;;;;5.55;1.05;;;4.50;99.90;;;;;;4994499;28;20060;-84
2024/01/04 11:57:32;;;;;;;1.55;0.30;;;4.50;99.90;;;;;;5011250;28;20502;-84
2024/01/04 11:59:57;;;;;;;4.10;0.50;;;5.50;99.90;;;;;;4994494;28;20042;-84
2024/01/04 12:02:23;;;;;;;3.97;0.50;;;4.80;99.90;;;;;;5011237;28;20050;-83
2024/01/04 12:04:49;;;;;;;1.95;0.40;;;5.50;99.90;;;;;;5060690;28;20139;-83
2024/01/04 12:07:15;;;;;;;2.75;0.35;;;3.80;99.90;;;;;;5074836;28;20040;-84
2024/01/04 12:09:41;;;;;;;1.02;0.35;;;4.40;99.90;;;;;;5058376;28;20126;-84
2024/01/04 12:12:10;;;;;;;0.73;0.40;;;4.90;99.90;;;;;;5102683;28;20063;-83
2024/01/04 12:14:37;;;;;;;3.28;0.40;;;4.40;99.90;;;;;;5095224;28;20438;-83
2024/01/04 12:17:04;;;;;;;3.33;0.55;;;4.70;99.90;;;;;;5095279;28;20048;-84
2024/01/04 12:19:29;;;;;;;2.55;0.35;;;4.30;99.90;;;;;;5113105;28;20501;-84
2024/01/04 12:21:55;;;;;;;5.30;0.60;;;4.90;99.90;;;;;;5094733;28;20043;-83
2024/01/04 12:24:25;;;;;;;1.33;0.30;;;4.50;99.90;;;;;;5112711;28;20047;-83
2024/01/04 12:26:51;;;;;;;0.73;0.30;;;4.70;99.90;;;;;;5094991;28;20104;-83
2024/01/04 12:29:17;;;;;;;2.42;0.40;;;4.90;99.90;;;;;;5113369;28;20345;-84
2024/01/04 12:31:43;;;;;;;1.35;0.40;;;4.60;99.90;;;;;;5091088;28;20101;-85
2024/01/04 12:34:10;;;;;;;3.17;0.30;;;4.80;99.90;;;;;;5091901;28;20043;-83
2024/01/04 12:36:36;;;;;;;0.85;0.30;;;3.10;99.90;;;;;;5095242;28;20055;-83
2024/01/04 12:39:10;;;;;;;2.67;0.43;;;4.30;99.90;;;;;;5094693;28;20044;-84
2024/01/04 12:41:39;;;;;;;2.13;0.40;;;5.10;99.90;;;;;;5090949;28;20044;-83
2024/01/04 12:44:07;;;;;;;3.45;0.40;;;3.20;99.90;;;;;;5099635;28;20051;-84
2024/01/04 12:46:33;;;;;;;5.78;0.50;;;4.40;99.90;;;;;;5095222;28;20117;-85
2024/01/04 12:49:12;;;;;;;2.25;0.50;;;5.20;99.90;;;;;;5087243;28;20036;-84
2024/01/04 12:51:40;;;;;;;2.00;0.40;;;4.60;99.90;;;;;;5113147;28;20044;-84
2024/01/04 12:54:07;;;;;;;3.97;0.40;;;4.40;99.90;;;;;;5084913;28;20097;-83
2024/01/04 12:56:36;;;;;;;3.25;0.52;;;4.50;99.90;;;;;;5092950;28;20047;-84